Accueil
METAR-TAF:

METAR-TAF

Aéroports :

MidCoast Regional Airport / Wright Army Airfield

Hinesville, Géorgie, États-Unis

latitude: 31-53N, longitude: 081-34W, altitude: 14 m

Observation

Le bulletin a été fait il y a 29 minutes, à 21:56 UTC
Vent 3 kt de ouest
Température 17°C
Humidité 25%
Pression 1026 hPa
Visibilité: 16.1 km
Ciel clair

METAR: KLHW 192156Z AUTO 26003KT 10SM CLR 17/M03 A3031 RMK AO2 SLP267 T01731035 $

Heure: 17:25 (22:25 UTC)


TAF: absent

Observations et prévisions météorologiques de plus de 4000 aéroports (messages METAR et TAF).

Les stations disponibles sont représentées par des disques jaunes et rouges sur la carte.

Passer la souris dessus pour voir le nom de la station.

Cliquer dessus pour voir les observations et prévisions météorologiques.

Pour changer de carte: cliquez sur les boutons verts avec une croix noire pour zoomer, sur le bouton vert avec un tiret pour effectuer un zoom arrière, ou sur les flèches vertes pour les cartes adjacentes.


METAR-TAF: